createdAt,value
2023-03-07T00:02:00.183Z,-3.40
2023-03-07T00:12:05.447Z,-3.10
2023-03-07T00:22:08.822Z,-2.80
2023-03-07T00:32:13.607Z,-2.70
2023-03-07T00:42:17.248Z,-2.90
2023-03-07T00:52:22.030Z,-3.10
2023-03-07T01:02:25.533Z,-3.30
2023-03-07T01:12:30.295Z,-3.40
2023-03-07T01:22:33.955Z,-3.10
2023-03-07T01:32:38.825Z,-2.60
2023-03-07T01:42:42.648Z,-2.20
2023-03-07T01:52:50.731Z,-1.90
2023-03-07T02:03:05.465Z,-1.80
2023-03-07T02:13:12.384Z,-2.00
2023-03-07T02:23:26.419Z,-2.20
2023-03-07T02:33:32.017Z,-2.30
2023-03-07T02:43:40.185Z,-2.10
2023-03-07T02:53:46.294Z,-2.00
2023-03-07T03:03:50.119Z,-2.00
2023-03-07T03:13:55.005Z,-1.90
2023-03-07T03:23:58.891Z,-2.20
2023-03-07T03:34:05.207Z,-2.40
2023-03-07T03:44:10.131Z,-2.30
2023-03-07T03:54:15.165Z,-2.10
2023-03-07T04:04:19.238Z,-1.90
2023-03-07T04:14:24.604Z,-1.70
2023-03-07T04:24:28.802Z,-1.40
2023-03-07T04:34:33.799Z,-1.30
2023-03-07T04:44:37.353Z,-1.20
2023-03-07T04:54:42.242Z,-1.10
2023-03-07T05:04:45.954Z,-1.00
2023-03-07T05:14:51.083Z,-1.00
2023-03-07T05:24:54.662Z,-0.90
2023-03-07T05:35:00.188Z,-0.80
2023-03-07T05:45:05.765Z,-0.60
2023-03-07T05:55:11.724Z,-0.40
2023-03-07T06:05:15.373Z,-0.20
2023-03-07T06:15:24.615Z,0.00
2023-03-07T06:25:34.265Z,0.10
2023-03-07T06:35:43.275Z,0.50
2023-03-07T06:45:47.428Z,1.10
2023-03-07T06:55:54.062Z,2.70
2023-03-07T07:05:57.576Z,4.40
2023-03-07T07:16:07.341Z,5.80
2023-03-07T07:26:12.704Z,6.50
2023-03-07T07:36:17.546Z,9.70
2023-03-07T07:46:21.466Z,12.20
2023-03-07T07:56:26.843Z,12.90
2023-03-07T08:06:30.865Z,12.80
2023-03-07T08:16:35.755Z,12.70
2023-03-07T08:26:39.384Z,14.30
2023-03-07T08:36:44.401Z,13.90
2023-03-07T08:46:47.919Z,15.30
2023-03-07T08:56:52.740Z,13.60
2023-03-07T09:06:56.828Z,12.10
2023-03-07T09:17:01.856Z,11.30
2023-03-07T09:27:05.419Z,10.80
2023-03-07T09:37:10.268Z,12.60
2023-03-07T09:47:36.275Z,11.80
2023-03-07T09:57:50.303Z,13.00
2023-03-07T10:07:56.156Z,13.60
2023-03-07T10:18:18.314Z,11.20
2023-03-07T10:28:26.175Z,10.30
2023-03-07T10:38:38.771Z,12.20
2023-03-07T10:48:47.327Z,10.60
2023-03-07T10:59:04.390Z,7.80
2023-03-07T11:09:17.949Z,6.90
2023-03-07T11:19:45.360Z,6.90
2023-03-07T11:30:18.098Z,7.00
2023-03-07T11:40:28.455Z,10.40
2023-03-07T11:50:33.839Z,10.00
2023-03-07T12:00:53.843Z,10.30
2023-03-07T12:11:15.627Z,9.50
2023-03-07T12:21:41.863Z,9.00
2023-03-07T12:31:49.729Z,9.00
2023-03-07T12:42:05.666Z,9.60
2023-03-07T12:52:19.441Z,9.70
2023-03-07T13:02:30.754Z,9.40
2023-03-07T13:12:36.301Z,9.20
2023-03-07T13:23:02.244Z,9.60
2023-03-07T13:33:26.626Z,10.40
2023-03-07T13:44:02.809Z,10.20
2023-03-07T13:54:12.849Z,11.90
2023-03-07T14:04:38.311Z,10.80
2023-03-07T14:15:09.364Z,10.80
2023-03-07T14:25:19.610Z,9.50
2023-03-07T14:35:38.454Z,9.60
2023-03-07T14:45:47.401Z,9.00
2023-03-07T14:55:53.987Z,8.30
2023-03-07T15:06:01.255Z,8.20
2023-03-07T15:16:09.147Z,7.50
2023-03-07T15:26:21.260Z,7.10
2023-03-07T15:36:27.792Z,6.80
2023-03-07T15:46:34.117Z,6.90
2023-03-07T15:56:38.172Z,6.00
2023-03-07T16:06:45.294Z,5.30
2023-03-07T16:16:49.129Z,4.80
2023-03-07T16:26:53.970Z,4.50
2023-03-07T16:36:57.465Z,4.30
2023-03-07T16:47:09.225Z,3.90
2023-03-07T16:57:16.364Z,3.70
2023-03-07T17:07:23.509Z,3.50
2023-03-07T17:17:33.181Z,3.40
2023-03-07T17:27:43.095Z,3.40
2023-03-07T17:37:48.034Z,3.50
2023-03-07T17:47:54.381Z,3.70
2023-03-07T17:57:57.789Z,3.70
2023-03-07T18:08:05.066Z,3.70
2023-03-07T18:18:08.554Z,3.50
2023-03-07T18:28:13.773Z,3.40
2023-03-07T18:38:18.323Z,3.40
2023-03-07T18:48:23.167Z,3.30
2023-03-07T18:58:26.786Z,3.20
2023-03-07T19:08:31.743Z,3.20
2023-03-07T19:18:36.848Z,3.10
2023-03-07T19:28:42.196Z,3.20
2023-03-07T19:38:47.941Z,3.30
2023-03-07T19:48:52.807Z,3.20
2023-03-07T19:58:58.848Z,3.20
2023-03-07T20:09:03.661Z,3.20
2023-03-07T20:19:09.697Z,3.20
2023-03-07T20:29:15.169Z,3.20
2023-03-07T20:39:18.646Z,3.20
2023-03-07T20:49:24.749Z,3.30
2023-03-07T20:59:28.303Z,3.50
2023-03-07T21:09:33.235Z,3.70
2023-03-07T21:19:37.036Z,3.90
2023-03-07T21:29:41.981Z,4.10
2023-03-07T21:39:45.734Z,4.10
2023-03-07T21:49:50.546Z,4.30
2023-03-07T21:59:54.004Z,4.40
2023-03-07T22:09:58.870Z,4.40
2023-03-07T22:20:02.425Z,4.40
2023-03-07T22:30:09.702Z,4.40
2023-03-07T22:40:14.544Z,4.40
2023-03-07T22:50:48.396Z,4.40
2023-03-07T23:00:52.434Z,4.30
2023-03-07T23:11:04.985Z,4.20
2023-03-07T23:21:11.110Z,4.30
2023-03-07T23:31:22.113Z,4.20
2023-03-07T23:41:26.352Z,4.20
2023-03-07T23:51:31.176Z,4.10
